sensor_id;sensor_type;location;lat;lon;timestamp;temperature;humidity
50544;DHT22;41176;44.032;20.900;2023-03-21T00:01:51;13.60;76.40
50544;DHT22;41176;44.032;20.900;2023-03-21T00:04:16;13.50;76.60
50544;DHT22;41176;44.032;20.900;2023-03-21T00:06:42;13.50;76.90
50544;DHT22;41176;44.032;20.900;2023-03-21T00:09:08;13.40;77.30
50544;DHT22;41176;44.032;20.900;2023-03-21T00:11:33;13.40;77.50
50544;DHT22;41176;44.032;20.900;2023-03-21T00:14:00;13.40;77.70
50544;DHT22;41176;44.032;20.900;2023-03-21T00:16:27;13.40;77.60
50544;DHT22;41176;44.032;20.900;2023-03-21T00:18:55;13.40;78.10
50544;DHT22;41176;44.032;20.900;2023-03-21T00:21:23;13.30;78.20
50544;DHT22;41176;44.032;20.900;2023-03-21T00:23:57;13.10;78.40
50544;DHT22;41176;44.032;20.900;2023-03-21T00:26:23;13.00;79.10
50544;DHT22;41176;44.032;20.900;2023-03-21T00:28:49;12.90;79.70
50544;DHT22;41176;44.032;20.900;2023-03-21T00:31:15;12.80;80.30
50544;DHT22;41176;44.032;20.900;2023-03-21T00:33:41;12.70;81.80
50544;DHT22;41176;44.032;20.900;2023-03-21T00:36:08;12.50;83.40
50544;DHT22;41176;44.032;20.900;2023-03-21T00:38:35;12.50;84.00
50544;DHT22;41176;44.032;20.900;2023-03-21T00:41:06;12.50;84.60
50544;DHT22;41176;44.032;20.900;2023-03-21T00:43:32;12.60;85.00
50544;DHT22;41176;44.032;20.900;2023-03-21T00:45:59;12.60;85.30
50544;DHT22;41176;44.032;20.900;2023-03-21T00:48:25;12.60;85.80
50544;DHT22;41176;44.032;20.900;2023-03-21T00:50:53;12.60;86.00
50544;DHT22;41176;44.032;20.900;2023-03-21T00:53:19;12.60;86.80
50544;DHT22;41176;44.032;20.900;2023-03-21T00:55:45;12.50;87.60
50544;DHT22;41176;44.032;20.900;2023-03-21T00:58:11;12.40;89.00
50544;DHT22;41176;44.032;20.900;2023-03-21T01:00:37;12.40;90.00
50544;DHT22;41176;44.032;20.900;2023-03-21T01:03:08;12.30;90.40
50544;DHT22;41176;44.032;20.900;2023-03-21T01:05:38;12.30;90.70
50544;DHT22;41176;44.032;20.900;2023-03-21T01:08:23;12.30;90.80
50544;DHT22;41176;44.032;20.900;2023-03-21T01:10:50;12.30;91.20
50544;DHT22;41176;44.032;20.900;2023-03-21T01:13:18;12.20;91.50
50544;DHT22;41176;44.032;20.900;2023-03-21T01:15:47;12.10;92.10
50544;DHT22;41176;44.032;20.900;2023-03-21T01:18:14;12.10;92.70
50544;DHT22;41176;44.032;20.900;2023-03-21T01:20:41;12.10;93.00
50544;DHT22;41176;44.032;20.900;2023-03-21T01:23:08;12.10;93.40
50544;DHT22;41176;44.032;20.900;2023-03-21T01:25:34;12.10;93.80
50544;DHT22;41176;44.032;20.900;2023-03-21T01:28:00;12.10;94.00
50544;DHT22;41176;44.032;20.900;2023-03-21T01:30:25;12.10;94.20
50544;DHT22;41176;44.032;20.900;2023-03-21T01:32:51;12.10;94.40
50544;DHT22;41176;44.032;20.900;2023-03-21T01:35:17;12.00;94.60
50544;DHT22;41176;44.032;20.900;2023-03-21T01:37:43;12.00;95.00
50544;DHT22;41176;44.032;20.900;2023-03-21T01:40:20;12.00;95.40
50544;DHT22;41176;44.032;20.900;2023-03-21T01:42:46;12.00;95.90
50544;DHT22;41176;44.032;20.900;2023-03-21T01:48:14;12.00;95.90
50544;DHT22;41176;44.032;20.900;2023-03-21T01:50:42;12.00;96.40
50544;DHT22;41176;44.032;20.900;2023-03-21T01:53:08;11.90;96.90
50544;DHT22;41176;44.032;20.900;2023-03-21T01:55:34;11.90;97.30
50544;DHT22;41176;44.032;20.900;2023-03-21T01:58:02;11.90;97.60
50544;DHT22;41176;44.032;20.900;2023-03-21T02:00:29;11.80;98.00
50544;DHT22;41176;44.032;20.900;2023-03-21T02:02:56;11.80;98.50
50544;DHT22;41176;44.032;20.900;2023-03-21T02:05:42;11.70;99.40
50544;DHT22;41176;44.032;20.900;2023-03-21T02:08:08;11.60;99.90
50544;DHT22;41176;44.032;20.900;2023-03-21T02:10:34;11.50;99.90
50544;DHT22;41176;44.032;20.900;2023-03-21T02:13:03;11.50;99.90
50544;DHT22;41176;44.032;20.900;2023-03-21T02:15:39;11.40;99.90
50544;DHT22;41176;44.032;20.900;2023-03-21T02:18:10;11.40;99.90
50544;DHT22;41176;44.032;20.900;2023-03-21T02:24:26;11.40;99.90
50544;DHT22;41176;44.032;20.900;2023-03-21T02:32:23;11.30;99.90
50544;DHT22;41176;44.032;20.900;2023-03-21T02:37:31;11.20;99.90
50544;DHT22;41176;44.032;20.900;2023-03-21T02:43:07;11.20;99.90
50544;DHT22;41176;44.032;20.900;2023-03-21T02:46:00;11.10;99.90
50544;DHT22;41176;44.032;20.900;2023-03-21T02:48:36;11.00;99.90
50544;DHT22;41176;44.032;20.900;2023-03-21T02:51:05;10.90;99.90
50544;DHT22;41176;44.032;20.900;2023-03-21T02:53:42;10.80;99.90
50544;DHT22;41176;44.032;20.900;2023-03-21T02:56:10;10.60;99.90
50544;DHT22;41176;44.032;20.900;2023-03-21T02:58:38;10.50;99.90
50544;DHT22;41176;44.032;20.900;2023-03-21T03:01:20;10.50;99.90
50544;DHT22;41176;44.032;20.900;2023-03-21T03:03:46;10.60;99.90
50544;DHT22;41176;44.032;20.900;2023-03-21T03:06:48;10.60;99.90
50544;DHT22;41176;44.032;20.900;2023-03-21T03:12:23;10.80;99.90
50544;DHT22;41176;44.032;20.900;2023-03-21T03:18:18;10.80;99.90
50544;DHT22;41176;44.032;20.900;2023-03-21T03:23:52;10.90;99.90
50544;DHT22;41176;44.032;20.900;2023-03-21T03:26:38;10.90;99.90
50544;DHT22;41176;44.032;20.900;2023-03-21T03:29:08;10.90;99.90
50544;DHT22;41176;44.032;20.900;2023-03-21T03:31:39;10.80;99.90
50544;DHT22;41176;44.032;20.900;2023-03-21T03:34:09;10.80;99.90
50544;DHT22;41176;44.032;20.900;2023-03-21T03:36:41;10.80;99.90
50544;DHT22;41176;44.032;20.900;2023-03-21T03:39:09;10.80;99.90
50544;DHT22;41176;44.032;20.900;2023-03-21T03:42:08;10.80;99.90
50544;DHT22;41176;44.032;20.900;2023-03-21T03:44:33;10.70;99.90
50544;DHT22;41176;44.032;20.900;2023-03-21T03:47:09;10.70;99.90
50544;DHT22;41176;44.032;20.900;2023-03-21T03:49:47;10.70;99.90
50544;DHT22;41176;44.032;20.900;2023-03-21T03:52:21;10.70;99.90
50544;DHT22;41176;44.032;20.900;2023-03-21T03:54:49;10.80;99.90
50544;DHT22;41176;44.032;20.900;2023-03-21T03:57:17;10.80;99.90
50544;DHT22;41176;44.032;20.900;2023-03-21T03:59:44;10.70;99.90
50544;DHT22;41176;44.032;20.900;2023-03-21T04:02:11;10.60;99.90
50544;DHT22;41176;44.032;20.900;2023-03-21T04:04:38;10.50;99.90
50544;DHT22;41176;44.032;20.900;2023-03-21T04:07:04;10.40;99.90
50544;DHT22;41176;44.032;20.900;2023-03-21T04:09:31;10.30;99.90
50544;DHT22;41176;44.032;20.900;2023-03-21T04:11:57;10.30;99.90
50544;DHT22;41176;44.032;20.900;2023-03-21T04:14:23;10.20;99.90
50544;DHT22;41176;44.032;20.900;2023-03-21T04:16:50;10.20;99.90
50544;DHT22;41176;44.032;20.900;2023-03-21T04:19:17;10.10;99.90
50544;DHT22;41176;44.032;20.900;2023-03-21T04:21:43;10.20;99.90
50544;DHT22;41176;44.032;20.900;2023-03-21T04:24:09;10.20;99.90
50544;DHT22;41176;44.032;20.900;2023-03-21T04:26:36;10.10;99.90
50544;DHT22;41176;44.032;20.900;2023-03-21T04:29:02;10.00;99.90
50544;DHT22;41176;44.032;20.900;2023-03-21T04:31:29;10.00;99.90
50544;DHT22;41176;44.032;20.900;2023-03-21T04:34:05;10.00;99.90
50544;DHT22;41176;44.032;20.900;2023-03-21T04:36:37;10.00;99.90
50544;DHT22;41176;44.032;20.900;2023-03-21T04:39:21;10.10;99.90
50544;DHT22;41176;44.032;20.900;2023-03-21T04:41:46;10.10;99.90
50544;DHT22;41176;44.032;20.900;2023-03-21T04:44:14;10.10;99.90
50544;DHT22;41176;44.032;20.900;2023-03-21T04:46:41;10.10;99.90
50544;DHT22;41176;44.032;20.900;2023-03-21T04:49:06;10.10;99.90
50544;DHT22;41176;44.032;20.900;2023-03-21T04:51:33;10.10;99.90
50544;DHT22;41176;44.032;20.900;2023-03-21T04:53:59;10.20;99.90
50544;DHT22;41176;44.032;20.900;2023-03-21T04:56:26;10.20;99.90
50544;DHT22;41176;44.032;20.900;2023-03-21T04:58:57;10.30;99.90
50544;DHT22;41176;44.032;20.900;2023-03-21T05:01:23;10.30;99.90
50544;DHT22;41176;44.032;20.900;2023-03-21T05:03:50;10.30;99.90
50544;DHT22;41176;44.032;20.900;2023-03-21T05:06:16;10.30;99.90
50544;DHT22;41176;44.032;20.900;2023-03-21T05:08:42;10.30;99.90
50544;DHT22;41176;44.032;20.900;2023-03-21T05:11:08;10.30;99.90
50544;DHT22;41176;44.032;20.900;2023-03-21T05:13:34;10.30;99.90
50544;DHT22;41176;44.032;20.900;2023-03-21T05:15:59;10.20;99.90
50544;DHT22;41176;44.032;20.900;2023-03-21T05:18:25;10.20;99.90
50544;DHT22;41176;44.032;20.900;2023-03-21T05:20:52;10.30;99.90
50544;DHT22;41176;44.032;20.900;2023-03-21T05:23:22;10.30;99.90
50544;DHT22;41176;44.032;20.900;2023-03-21T05:25:48;10.30;99.90
50544;DHT22;41176;44.032;20.900;2023-03-21T05:28:14;10.30;99.90
50544;DHT22;41176;44.032;20.900;2023-03-21T05:30:44;10.30;99.90
50544;DHT22;41176;44.032;20.900;2023-03-21T05:33:11;10.40;99.90
50544;DHT22;41176;44.032;20.900;2023-03-21T05:35:36;10.50;99.90
50544;DHT22;41176;44.032;20.900;2023-03-21T05:38:02;10.50;99.90
50544;DHT22;41176;44.032;20.900;2023-03-21T05:40:28;10.50;99.90
50544;DHT22;41176;44.032;20.900;2023-03-21T05:42:53;10.50;99.90
50544;DHT22;41176;44.032;20.900;2023-03-21T05:45:19;10.60;99.90
50544;DHT22;41176;44.032;20.900;2023-03-21T05:47:45;10.70;99.90
50544;DHT22;41176;44.032;20.900;2023-03-21T05:50:11;10.80;99.90
50544;DHT22;41176;44.032;20.900;2023-03-21T05:52:38;10.90;99.90
50544;DHT22;41176;44.032;20.900;2023-03-21T05:55:05;11.00;99.90
50544;DHT22;41176;44.032;20.900;2023-03-21T05:57:31;11.10;99.90
50544;DHT22;41176;44.032;20.900;2023-03-21T06:00:00;11.30;99.90
50544;DHT22;41176;44.032;20.900;2023-03-21T06:02:26;11.40;99.90
50544;DHT22;41176;44.032;20.900;2023-03-21T06:04:52;11.50;99.90
50544;DHT22;41176;44.032;20.900;2023-03-21T06:07:17;11.60;99.90
50544;DHT22;41176;44.032;20.900;2023-03-21T06:09:43;11.70;99.90
50544;DHT22;41176;44.032;20.900;2023-03-21T06:12:10;11.80;99.90
50544;DHT22;41176;44.032;20.900;2023-03-21T06:14:36;11.90;99.90
50544;DHT22;41176;44.032;20.900;2023-03-21T06:17:02;12.00;99.90
50544;DHT22;41176;44.032;20.900;2023-03-21T06:19:27;12.10;99.90
50544;DHT22;41176;44.032;20.900;2023-03-21T06:21:53;12.10;99.90
50544;DHT22;41176;44.032;20.900;2023-03-21T06:24:19;12.20;99.90
50544;DHT22;41176;44.032;20.900;2023-03-21T06:26:45;12.30;99.90
50544;DHT22;41176;44.032;20.900;2023-03-21T06:29:11;12.30;99.90
50544;DHT22;41176;44.032;20.900;2023-03-21T06:31:36;12.30;99.90
50544;DHT22;41176;44.032;20.900;2023-03-21T06:34:02;12.30;99.90
50544;DHT22;41176;44.032;20.900;2023-03-21T06:36:28;12.20;99.90
50544;DHT22;41176;44.032;20.900;2023-03-21T06:38:54;12.20;99.90
50544;DHT22;41176;44.032;20.900;2023-03-21T06:41:19;12.20;99.90
50544;DHT22;41176;44.032;20.900;2023-03-21T06:43:45;12.30;99.90
50544;DHT22;41176;44.032;20.900;2023-03-21T06:46:12;12.40;99.90
50544;DHT22;41176;44.032;20.900;2023-03-21T06:48:38;12.50;99.90
50544;DHT22;41176;44.032;20.900;2023-03-21T06:51:10;12.60;99.90
50544;DHT22;41176;44.032;20.900;2023-03-21T06:53:35;12.70;99.90
50544;DHT22;41176;44.032;20.900;2023-03-21T06:56:01;12.90;99.90
50544;DHT22;41176;44.032;20.900;2023-03-21T06:58:27;13.10;99.90
50544;DHT22;41176;44.032;20.900;2023-03-21T07:00:52;13.20;99.60
50544;DHT22;41176;44.032;20.900;2023-03-21T07:03:18;13.30;99.00
50544;DHT22;41176;44.032;20.900;2023-03-21T07:05:44;13.40;98.10
50544;DHT22;41176;44.032;20.900;2023-03-21T07:08:09;13.50;96.80
50544;DHT22;41176;44.032;20.900;2023-03-21T07:10:40;13.60;95.70
50544;DHT22;41176;44.032;20.900;2023-03-21T07:13:07;13.70;95.60
50544;DHT22;41176;44.032;20.900;2023-03-21T07:15:33;13.90;94.90
50544;DHT22;41176;44.032;20.900;2023-03-21T07:18:03;13.90;94.80
50544;DHT22;41176;44.032;20.900;2023-03-21T07:20:29;13.90;94.60
50544;DHT22;41176;44.032;20.900;2023-03-21T07:22:55;14.00;94.30
50544;DHT22;41176;44.032;20.900;2023-03-21T07:25:21;14.40;92.90
50544;DHT22;41176;44.032;20.900;2023-03-21T07:27:47;14.30;92.50
50544;DHT22;41176;44.032;20.900;2023-03-21T07:30:13;14.60;92.30
50544;DHT22;41176;44.032;20.900;2023-03-21T07:32:39;15.00;91.10
50544;DHT22;41176;44.032;20.900;2023-03-21T07:35:06;15.40;89.50
50544;DHT22;41176;44.032;20.900;2023-03-21T07:37:32;15.40;86.90
50544;DHT22;41176;44.032;20.900;2023-03-21T07:39:58;15.30;88.10
50544;DHT22;41176;44.032;20.900;2023-03-21T07:42:24;15.30;88.30
50544;DHT22;41176;44.032;20.900;2023-03-21T07:44:49;15.50;88.80
50544;DHT22;41176;44.032;20.900;2023-03-21T07:47:19;15.40;87.60
50544;DHT22;41176;44.032;20.900;2023-03-21T07:49:45;15.10;87.30
50544;DHT22;41176;44.032;20.900;2023-03-21T07:52:11;14.80;88.40
50544;DHT22;41176;44.032;20.900;2023-03-21T07:54:37;14.90;88.40
50544;DHT22;41176;44.032;20.900;2023-03-21T07:57:02;15.10;88.30
50544;DHT22;41176;44.032;20.900;2023-03-21T07:59:28;15.10;88.10
50544;DHT22;41176;44.032;20.900;2023-03-21T08:01:55;15.20;87.60
50544;DHT22;41176;44.032;20.900;2023-03-21T08:04:20;15.20;86.20
50544;DHT22;41176;44.032;20.900;2023-03-21T08:06:47;15.30;88.10
50544;DHT22;41176;44.032;20.900;2023-03-21T08:09:18;15.40;85.70
50544;DHT22;41176;44.032;20.900;2023-03-21T08:11:44;15.60;84.80
50544;DHT22;41176;44.032;20.900;2023-03-21T08:14:10;15.50;82.70
50544;DHT22;41176;44.032;20.900;2023-03-21T08:16:35;15.50;83.80
50544;DHT22;41176;44.032;20.900;2023-03-21T08:19:01;15.50;82.80
50544;DHT22;41176;44.032;20.900;2023-03-21T08:21:29;15.30;83.30
50544;DHT22;41176;44.032;20.900;2023-03-21T08:24:04;15.30;84.30
50544;DHT22;41176;44.032;20.900;2023-03-21T08:26:31;15.40;83.50
50544;DHT22;41176;44.032;20.900;2023-03-21T08:28:58;15.40;83.50
50544;DHT22;41176;44.032;20.900;2023-03-21T08:31:24;15.50;83.20
50544;DHT22;41176;44.032;20.900;2023-03-21T08:33:53;15.60;81.40
50544;DHT22;41176;44.032;20.900;2023-03-21T08:36:23;15.60;82.10
50544;DHT22;41176;44.032;20.900;2023-03-21T08:38:48;15.70;81.40
50544;DHT22;41176;44.032;20.900;2023-03-21T08:41:19;15.70;80.50
50544;DHT22;41176;44.032;20.900;2023-03-21T08:43:47;15.80;81.10
50544;DHT22;41176;44.032;20.900;2023-03-21T08:46:13;15.80;80.80
50544;DHT22;41176;44.032;20.900;2023-03-21T08:48:39;16.00;80.90
50544;DHT22;41176;44.032;20.900;2023-03-21T08:51:05;16.10;80.60
50544;DHT22;41176;44.032;20.900;2023-03-21T08:53:32;16.10;81.80
50544;DHT22;41176;44.032;20.900;2023-03-21T08:55:58;16.40;82.90
50544;DHT22;41176;44.032;20.900;2023-03-21T08:58:24;16.40;80.30
50544;DHT22;41176;44.032;20.900;2023-03-21T09:00:50;16.60;79.80
50544;DHT22;41176;44.032;20.900;2023-03-21T09:03:16;16.50;80.30
50544;DHT22;41176;44.032;20.900;2023-03-21T09:05:42;16.50;80.00
50544;DHT22;41176;44.032;20.900;2023-03-21T09:08:10;16.50;79.30
50544;DHT22;41176;44.032;20.900;2023-03-21T09:10:37;16.50;80.00
50544;DHT22;41176;44.032;20.900;2023-03-21T09:13:03;16.60;79.80
50544;DHT22;41176;44.032;20.900;2023-03-21T09:15:29;16.70;79.00
50544;DHT22;41176;44.032;20.900;2023-03-21T09:17:57;16.90;79.50
50544;DHT22;41176;44.032;20.900;2023-03-21T09:20:25;17.10;77.90
50544;DHT22;41176;44.032;20.900;2023-03-21T09:22:55;17.30;77.60
50544;DHT22;41176;44.032;20.900;2023-03-21T09:25:22;17.30;77.20
50544;DHT22;41176;44.032;20.900;2023-03-21T09:27:49;17.50;75.30
50544;DHT22;41176;44.032;20.900;2023-03-21T09:30:18;17.60;73.90
50544;DHT22;41176;44.032;20.900;2023-03-21T09:32:45;17.60;74.40
50544;DHT22;41176;44.032;20.900;2023-03-21T09:35:15;17.80;73.30
50544;DHT22;41176;44.032;20.900;2023-03-21T09:37:43;18.00;72.40
50544;DHT22;41176;44.032;20.900;2023-03-21T09:40:17;18.10;71.90
50544;DHT22;41176;44.032;20.900;2023-03-21T09:43:05;18.30;71.30
50544;DHT22;41176;44.032;20.900;2023-03-21T09:46:09;18.20;70.50
50544;DHT22;41176;44.032;20.900;2023-03-21T09:51:20;18.60;69.60
50544;DHT22;41176;44.032;20.900;2023-03-21T09:53:47;18.60;69.40
50544;DHT22;41176;44.032;20.900;2023-03-21T09:56:14;18.70;69.50
50544;DHT22;41176;44.032;20.900;2023-03-21T09:58:49;18.90;67.60
50544;DHT22;41176;44.032;20.900;2023-03-21T10:01:36;19.20;68.10
50544;DHT22;41176;44.032;20.900;2023-03-21T10:04:09;19.50;68.00
50544;DHT22;41176;44.032;20.900;2023-03-21T10:06:38;19.60;67.80
50544;DHT22;41176;44.032;20.900;2023-03-21T10:09:12;20.10;65.30
50544;DHT22;41176;44.032;20.900;2023-03-21T10:11:44;20.20;63.90
50544;DHT22;41176;44.032;20.900;2023-03-21T10:16:56;20.30;61.80
50544;DHT22;41176;44.032;20.900;2023-03-21T10:20:22;20.40;61.90
50544;DHT22;41176;44.032;20.900;2023-03-21T10:22:50;20.40;62.20
50544;DHT22;41176;44.032;20.900;2023-03-21T10:25:33;20.20;57.90
50544;DHT22;41176;44.032;20.900;2023-03-21T10:28:00;20.30;59.80
50544;DHT22;41176;44.032;20.900;2023-03-21T10:30:45;20.50;58.70
50544;DHT22;41176;44.032;20.900;2023-03-21T10:33:16;20.40;57.50
50544;DHT22;41176;44.032;20.900;2023-03-21T10:35:48;20.30;58.70
50544;DHT22;41176;44.032;20.900;2023-03-21T10:38:19;20.00;58.80
50544;DHT22;41176;44.032;20.900;2023-03-21T10:40:46;20.10;59.10
50544;DHT22;41176;44.032;20.900;2023-03-21T10:45:55;20.10;57.20
50544;DHT22;41176;44.032;20.900;2023-03-21T10:48:22;19.90;59.40
50544;DHT22;41176;44.032;20.900;2023-03-21T10:50:50;19.80;59.10
50544;DHT22;41176;44.032;20.900;2023-03-21T10:53:25;19.80;60.10
50544;DHT22;41176;44.032;20.900;2023-03-21T10:55:56;19.70;60.70
50544;DHT22;41176;44.032;20.900;2023-03-21T10:58:26;19.80;60.30
50544;DHT22;41176;44.032;20.900;2023-03-21T11:00:56;19.90;59.70
50544;DHT22;41176;44.032;20.900;2023-03-21T11:05:58;20.20;60.20
50544;DHT22;41176;44.032;20.900;2023-03-21T11:08:24;20.30;58.70
50544;DHT22;41176;44.032;20.900;2023-03-21T11:13:38;20.40;58.40
50544;DHT22;41176;44.032;20.900;2023-03-21T11:16:18;20.20;58.70
50544;DHT22;41176;44.032;20.900;2023-03-21T11:18:50;20.10;58.70
50544;DHT22;41176;44.032;20.900;2023-03-21T11:21:16;20.00;59.30
50544;DHT22;41176;44.032;20.900;2023-03-21T11:23:44;20.00;59.60
50544;DHT22;41176;44.032;20.900;2023-03-21T11:26:30;20.00;61.20
50544;DHT22;41176;44.032;20.900;2023-03-21T11:28:57;19.80;59.90
50544;DHT22;41176;44.032;20.900;2023-03-21T11:31:37;19.70;59.70
50544;DHT22;41176;44.032;20.900;2023-03-21T11:34:06;19.70;60.70
50544;DHT22;41176;44.032;20.900;2023-03-21T11:36:36;19.50;61.40
50544;DHT22;41176;44.032;20.900;2023-03-21T11:41:53;20.40;58.90
50544;DHT22;41176;44.032;20.900;2023-03-21T11:44:34;20.60;60.30
50544;DHT22;41176;44.032;20.900;2023-03-21T11:47:09;20.90;59.60
50544;DHT22;41176;44.032;20.900;2023-03-21T11:49:35;20.90;59.60
50544;DHT22;41176;44.032;20.900;2023-03-21T12:00:22;20.50;58.60
50544;DHT22;41176;44.032;20.900;2023-03-21T12:03:13;20.40;59.20
50544;DHT22;41176;44.032;20.900;2023-03-21T12:05:59;20.40;59.60
50544;DHT22;41176;44.032;20.900;2023-03-21T12:08:44;20.20;60.40
50544;DHT22;41176;44.032;20.900;2023-03-21T12:25:26;20.90;60.00
50544;DHT22;41176;44.032;20.900;2023-03-21T12:28:17;20.90;60.00
50544;DHT22;41176;44.032;20.900;2023-03-21T12:30:59;21.00;59.10
50544;DHT22;41176;44.032;20.900;2023-03-21T12:44:16;20.40;60.90
50544;DHT22;41176;44.032;20.900;2023-03-21T12:46:50;20.20;61.80
50544;DHT22;41176;44.032;20.900;2023-03-21T12:49:28;20.00;62.20
50544;DHT22;41176;44.032;20.900;2023-03-21T12:52:03;19.80;62.20
50544;DHT22;41176;44.032;20.900;2023-03-21T12:57:21;19.70;62.70
50544;DHT22;41176;44.032;20.900;2023-03-21T13:00:04;19.80;63.50
50544;DHT22;41176;44.032;20.900;2023-03-21T13:03:10;19.70;62.80
50544;DHT22;41176;44.032;20.900;2023-03-21T13:05:41;19.70;62.80
50544;DHT22;41176;44.032;20.900;2023-03-21T13:08:34;19.70;62.80
50544;DHT22;41176;44.032;20.900;2023-03-21T13:11:03;19.70;63.30
50544;DHT22;41176;44.032;20.900;2023-03-21T13:13:43;19.70;63.90
50544;DHT22;41176;44.032;20.900;2023-03-21T13:16:25;19.80;64.20
50544;DHT22;41176;44.032;20.900;2023-03-21T13:21:53;19.70;63.20
50544;DHT22;41176;44.032;20.900;2023-03-21T13:24:48;19.70;64.60
50544;DHT22;41176;44.032;20.900;2023-03-21T13:29:56;19.70;65.40
50544;DHT22;41176;44.032;20.900;2023-03-21T13:38:02;19.90;64.80
50544;DHT22;41176;44.032;20.900;2023-03-21T13:43:40;19.60;65.00
50544;DHT22;41176;44.032;20.900;2023-03-21T13:46:13;19.50;64.70
50544;DHT22;41176;44.032;20.900;2023-03-21T13:54:02;19.30;66.00
50544;DHT22;41176;44.032;20.900;2023-03-21T13:56:28;19.40;65.80
50544;DHT22;41176;44.032;20.900;2023-03-21T13:59:34;19.40;66.00
50544;DHT22;41176;44.032;20.900;2023-03-21T14:04:44;19.30;66.00
50544;DHT22;41176;44.032;20.900;2023-03-21T14:07:20;19.20;66.10
50544;DHT22;41176;44.032;20.900;2023-03-21T14:09:51;19.10;66.40
50544;DHT22;41176;44.032;20.900;2023-03-21T14:12:21;18.90;65.30
50544;DHT22;41176;44.032;20.900;2023-03-21T14:15:00;18.80;66.30
50544;DHT22;41176;44.032;20.900;2023-03-21T14:17:32;18.60;66.30
50544;DHT22;41176;44.032;20.900;2023-03-21T14:20:07;18.60;67.30
50544;DHT22;41176;44.032;20.900;2023-03-21T14:22:40;18.60;66.60
50544;DHT22;41176;44.032;20.900;2023-03-21T14:25:11;18.50;67.20
50544;DHT22;41176;44.032;20.900;2023-03-21T14:27:44;18.40;66.70
50544;DHT22;41176;44.032;20.900;2023-03-21T14:30:20;18.40;67.20
50544;DHT22;41176;44.032;20.900;2023-03-21T14:32:47;18.40;67.50
50544;DHT22;41176;44.032;20.900;2023-03-21T14:35:13;18.30;66.80
50544;DHT22;41176;44.032;20.900;2023-03-21T14:37:42;18.20;66.10
50544;DHT22;41176;44.032;20.900;2023-03-21T14:40:25;18.10;66.50
50544;DHT22;41176;44.032;20.900;2023-03-21T14:42:52;18.00;67.00
50544;DHT22;41176;44.032;20.900;2023-03-21T14:45:23;18.00;66.90
50544;DHT22;41176;44.032;20.900;2023-03-21T14:52:57;17.90;68.40
50544;DHT22;41176;44.032;20.900;2023-03-21T14:55:23;17.90;68.60
50544;DHT22;41176;44.032;20.900;2023-03-21T14:57:50;17.90;68.60
50544;DHT22;41176;44.032;20.900;2023-03-21T15:00:22;17.80;69.10
50544;DHT22;41176;44.032;20.900;2023-03-21T15:02:50;17.90;69.10
50544;DHT22;41176;44.032;20.900;2023-03-21T15:05:33;17.80;68.60
50544;DHT22;41176;44.032;20.900;2023-03-21T15:08:07;17.70;69.80
50544;DHT22;41176;44.032;20.900;2023-03-21T15:10:37;17.70;70.40
50544;DHT22;41176;44.032;20.900;2023-03-21T15:13:18;17.70;70.10
50544;DHT22;41176;44.032;20.900;2023-03-21T15:15:45;17.70;69.70
50544;DHT22;41176;44.032;20.900;2023-03-21T15:18:15;17.80;70.00
50544;DHT22;41176;44.032;20.900;2023-03-21T15:20:45;17.70;69.80
50544;DHT22;41176;44.032;20.900;2023-03-21T15:23:24;17.70;69.30
50544;DHT22;41176;44.032;20.900;2023-03-21T15:25:51;17.60;69.70
50544;DHT22;41176;44.032;20.900;2023-03-21T15:28:17;17.70;69.70
50544;DHT22;41176;44.032;20.900;2023-03-21T15:30:48;17.60;70.40
50544;DHT22;41176;44.032;20.900;2023-03-21T15:33:15;17.40;70.50
50544;DHT22;41176;44.032;20.900;2023-03-21T15:35:43;17.40;70.60
50544;DHT22;41176;44.032;20.900;2023-03-21T15:38:38;17.40;70.30
50544;DHT22;41176;44.032;20.900;2023-03-21T15:46:39;17.20;71.30
50544;DHT22;41176;44.032;20.900;2023-03-21T15:49:30;17.10;72.60
50544;DHT22;41176;44.032;20.900;2023-03-21T15:52:29;17.00;73.10
50544;DHT22;41176;44.032;20.900;2023-03-21T15:54:56;16.90;73.60
50544;DHT22;41176;44.032;20.900;2023-03-21T15:57:31;16.90;73.40
50544;DHT22;41176;44.032;20.900;2023-03-21T16:02:57;16.80;74.80
50544;DHT22;41176;44.032;20.900;2023-03-21T16:05:26;16.60;75.70
50544;DHT22;41176;44.032;20.900;2023-03-21T16:07:56;16.60;76.00
50544;DHT22;41176;44.032;20.900;2023-03-21T16:10:31;16.60;76.30
50544;DHT22;41176;44.032;20.900;2023-03-21T16:12:58;16.60;76.80
50544;DHT22;41176;44.032;20.900;2023-03-21T16:15:26;16.50;76.70
50544;DHT22;41176;44.032;20.900;2023-03-21T16:18:00;16.50;76.80
50544;DHT22;41176;44.032;20.900;2023-03-21T16:20:43;16.50;76.50
50544;DHT22;41176;44.032;20.900;2023-03-21T16:23:11;16.50;76.70
50544;DHT22;41176;44.032;20.900;2023-03-21T16:25:38;16.50;76.40
50544;DHT22;41176;44.032;20.900;2023-03-21T16:28:04;16.50;76.20
50544;DHT22;41176;44.032;20.900;2023-03-21T16:30:30;16.40;75.80
50544;DHT22;41176;44.032;20.900;2023-03-21T16:32:57;16.40;76.00
50544;DHT22;41176;44.032;20.900;2023-03-21T16:35:23;16.30;76.20
50544;DHT22;41176;44.032;20.900;2023-03-21T16:37:50;16.30;76.10
50544;DHT22;41176;44.032;20.900;2023-03-21T16:40:23;16.20;76.20
50544;DHT22;41176;44.032;20.900;2023-03-21T16:42:51;16.20;76.30
50544;DHT22;41176;44.032;20.900;2023-03-21T16:45:17;16.20;76.20
50544;DHT22;41176;44.032;20.900;2023-03-21T16:47:43;16.20;76.40
50544;DHT22;41176;44.032;20.900;2023-03-21T16:50:34;16.10;76.40
50544;DHT22;41176;44.032;20.900;2023-03-21T16:53:01;16.10;76.70
50544;DHT22;41176;44.032;20.900;2023-03-21T16:55:27;16.10;76.80
50544;DHT22;41176;44.032;20.900;2023-03-21T16:57:57;16.00;77.60
50544;DHT22;41176;44.032;20.900;2023-03-21T17:00:25;16.00;77.80
50544;DHT22;41176;44.032;20.900;2023-03-21T17:02:53;15.90;79.20
50544;DHT22;41176;44.032;20.900;2023-03-21T17:05:24;15.80;79.70
50544;DHT22;41176;44.032;20.900;2023-03-21T17:07:52;15.60;77.70
50544;DHT22;41176;44.032;20.900;2023-03-21T17:10:24;15.30;77.40
50544;DHT22;41176;44.032;20.900;2023-03-21T17:12:50;15.20;77.70
50544;DHT22;41176;44.032;20.900;2023-03-21T17:15:16;15.20;78.40
50544;DHT22;41176;44.032;20.900;2023-03-21T17:17:43;15.10;78.50
50544;DHT22;41176;44.032;20.900;2023-03-21T17:25:55;15.00;78.80
50544;DHT22;41176;44.032;20.900;2023-03-21T17:28:32;14.90;79.00
50544;DHT22;41176;44.032;20.900;2023-03-21T17:31:21;14.80;78.90
50544;DHT22;41176;44.032;20.900;2023-03-21T17:36:57;14.70;79.70
50544;DHT22;41176;44.032;20.900;2023-03-21T17:39:54;14.60;79.70